Airfield :
LOGIN :

Register | Disclaimer

   EN    FR    IT 

 










Legend :    VFR   Marginal VFR   IFR   Intensive IFR   Very Intensive IFR
Visi :
Ceiling :
>= 8 km
>= 3000ft
5 to 8 km
1000 to 3000 ft
1500m to 5 km
500 to 1000 ft
800 to 1500m
200 to 500 ft
< 800m
< 200 ft
Symbols :   Thunderstorms  Fog  Heavy snow  Heavy precipitations  Wind > 20 kt
SIGMETs :     Misc.  Thunderstorms  Icing  Turbulence  Mountain Waves  Volcanic Ashes







- Airport Elevation : 1504 ft
- IATA code : PNA


LEPP - Noain Pamplona

CURRENT METAR :
  • 181530Z 26002KT CAVOK 11/M04 Q1018

EXPIRED METARs :
  • 181500Z 27005KT 240V330 CAVOK 11/M03 Q1018
  • 181430Z 28003KT 200V360 CAVOK 10/M02 Q1018
  • 181400Z 34003KT 290V050 CAVOK 10/M03 Q1018
  • 181330Z 31004KT 270V330 CAVOK 10/M01 Q1019
  • 181300Z 17004KT 110V230 CAVOK 10/M02 Q1018

TAF TAF LEPP
Valid from the 18 at 15:00 until the 19 at 15:00 UTC


181400Z 1815/1915 15009KT CAVOK TX11/1914Z TN01/1906Z
TEMPO 1815/1818 15015G25KT
PROB30
TEMPO 1818/1821 RA
No reported NOTAMs for that airfield.
3 SIGMETs reported for the Madrid FIR (LECM) :
 
Severe icing
LECM SIGMET 7 VALID 181358/181600 LEVA
LECM MADRID UIR SEV ICE OBS AT 1357Z WI N4320 W00150 - N4210 W00250 - N42 W00120 - N43 W001 - N4320 W00150 FL260/300 STNR NC=
Severe turbulence
LECM SIGMET 6 VALID 181200/181600 LEVA
LECM MADRID FIR SEV TURB FCST WI N4317 W00627 - N4317 W00146 - N4242 W00003 - N4206 W00016 - N4249 W00624 - N4317 W00627 SFC/FL120 STNR NC=
Severe turbulence
LECM SIGMET 5 VALID 181200/181600 LEVA
LECM MADRID FIR/UIR SEV TURB FCST WI N4449 W00629 - N4147 W00748 - N42 W01003 - N4502 W00918 - N4449 W00629 SFC/FL250 MOV NE NC=



MET'MAP, your aeronautical weather chart ! - Copyright ORBIFLY December 2007 - Disclaimer

ORBIFLY MET'MAP TEAM :

Programming & Development : Alexandra Zaïnal
Concept & Development : Baudouin d'Aumeries
Co-Development & Prog : Marc-Olivier Méhu
Technical & hardware support : Manuel Goepfert

Contact : metmap@orbifly.com




SOURCES & CREDITS :

   NOAA